sensor_id;sensor_type;location;lat;lon;timestamp;P1;durP1;ratioP1;P2;durP2;ratioP2
54139;SDS011;40046;53.254;5.900;2024-02-21T00:01:16;18.35;;;5.57;;
54139;SDS011;40046;53.254;5.900;2024-02-21T00:03:43;29.70;;;5.53;;
54139;SDS011;40046;53.254;5.900;2024-02-21T00:06:09;26.00;;;4.32;;
54139;SDS011;40046;53.254;5.900;2024-02-21T00:08:35;25.40;;;6.22;;
54139;SDS011;40046;53.254;5.900;2024-02-21T00:11:01;29.27;;;4.60;;
54139;SDS011;40046;53.254;5.900;2024-02-21T00:13:28;24.52;;;4.38;;
54139;SDS011;40046;53.254;5.900;2024-02-21T00:15:54;21.98;;;5.10;;
54139;SDS011;40046;53.254;5.900;2024-02-21T00:18:21;28.45;;;5.40;;
54139;SDS011;40046;53.254;5.900;2024-02-21T00:20:48;29.70;;;4.82;;
54139;SDS011;40046;53.254;5.900;2024-02-21T00:23:16;33.20;;;4.60;;
54139;SDS011;40046;53.254;5.900;2024-02-21T00:25:42;27.05;;;4.65;;
54139;SDS011;40046;53.254;5.900;2024-02-21T00:28:10;28.77;;;4.28;;
54139;SDS011;40046;53.254;5.900;2024-02-21T00:30:38;23.02;;;4.85;;
54139;SDS011;40046;53.254;5.900;2024-02-21T00:33:04;24.15;;;4.78;;
54139;SDS011;40046;53.254;5.900;2024-02-21T00:35:30;29.67;;;5.57;;
54139;SDS011;40046;53.254;5.900;2024-02-21T00:37:56;23.25;;;5.45;;
54139;SDS011;40046;53.254;5.900;2024-02-21T00:40:24;27.73;;;4.50;;
54139;SDS011;40046;53.254;5.900;2024-02-21T00:42:50;24.00;;;5.38;;
54139;SDS011;40046;53.254;5.900;2024-02-21T00:45:17;32.40;;;5.47;;
54139;SDS011;40046;53.254;5.900;2024-02-21T00:47:43;24.35;;;5.00;;
54139;SDS011;40046;53.254;5.900;2024-02-21T00:50:09;25.75;;;4.97;;
54139;SDS011;40046;53.254;5.900;2024-02-21T00:52:35;29.98;;;5.60;;
54139;SDS011;40046;53.254;5.900;2024-02-21T00:55:02;25.35;;;5.30;;
54139;SDS011;40046;53.254;5.900;2024-02-21T00:57:28;17.90;;;4.85;;
54139;SDS011;40046;53.254;5.900;2024-02-21T00:59:54;31.20;;;5.90;;
54139;SDS011;40046;53.254;5.900;2024-02-21T01:02:21;24.50;;;6.88;;
54139;SDS011;40046;53.254;5.900;2024-02-21T01:04:47;24.67;;;5.13;;
54139;SDS011;40046;53.254;5.900;2024-02-21T01:07:13;27.70;;;8.52;;
54139;SDS011;40046;53.254;5.900;2024-02-21T01:09:39;23.83;;;6.35;;
54139;SDS011;40046;53.254;5.900;2024-02-21T01:12:06;32.00;;;6.80;;
54139;SDS011;40046;53.254;5.900;2024-02-21T01:14:32;30.52;;;7.00;;
54139;SDS011;40046;53.254;5.900;2024-02-21T01:16:59;23.73;;;6.30;;
54139;SDS011;40046;53.254;5.900;2024-02-21T01:19:25;24.80;;;6.72;;
54139;SDS011;40046;53.254;5.900;2024-02-21T01:21:51;26.67;;;6.47;;
54139;SDS011;40046;53.254;5.900;2024-02-21T01:24:17;21.98;;;6.00;;
54139;SDS011;40046;53.254;5.900;2024-02-21T01:26:43;27.80;;;6.10;;
54139;SDS011;40046;53.254;5.900;2024-02-21T01:29:10;26.90;;;6.68;;
54139;SDS011;40046;53.254;5.900;2024-02-21T01:31:36;29.25;;;6.47;;
54139;SDS011;40046;53.254;5.900;2024-02-21T01:34:02;29.35;;;5.28;;
54139;SDS011;40046;53.254;5.900;2024-02-21T01:36:28;26.77;;;6.53;;
54139;SDS011;40046;53.254;5.900;2024-02-21T01:38:54;34.45;;;7.00;;
54139;SDS011;40046;53.254;5.900;2024-02-21T01:41:21;26.90;;;6.57;;
54139;SDS011;40046;53.254;5.900;2024-02-21T01:43:47;23.67;;;5.65;;
54139;SDS011;40046;53.254;5.900;2024-02-21T01:46:13;25.92;;;5.75;;
54139;SDS011;40046;53.254;5.900;2024-02-21T01:48:39;30.60;;;6.13;;
54139;SDS011;40046;53.254;5.900;2024-02-21T01:51:05;29.10;;;6.07;;
54139;SDS011;40046;53.254;5.900;2024-02-21T01:53:36;31.77;;;7.63;;
54139;SDS011;40046;53.254;5.900;2024-02-21T01:56:03;20.60;;;7.13;;
54139;SDS011;40046;53.254;5.900;2024-02-21T01:58:32;32.03;;;8.18;;
54139;SDS011;40046;53.254;5.900;2024-02-21T02:00:59;30.73;;;7.60;;
54139;SDS011;40046;53.254;5.900;2024-02-21T02:03:25;31.42;;;7.72;;
54139;SDS011;40046;53.254;5.900;2024-02-21T02:05:52;29.73;;;6.03;;
54139;SDS011;40046;53.254;5.900;2024-02-21T02:08:18;26.42;;;5.95;;
54139;SDS011;40046;53.254;5.900;2024-02-21T02:10:47;19.52;;;5.45;;
54139;SDS011;40046;53.254;5.900;2024-02-21T02:13:13;31.98;;;6.60;;
54139;SDS011;40046;53.254;5.900;2024-02-21T02:15:44;29.45;;;6.75;;
54139;SDS011;40046;53.254;5.900;2024-02-21T02:18:10;32.65;;;6.90;;
54139;SDS011;40046;53.254;5.900;2024-02-21T02:20:37;27.48;;;6.65;;
54139;SDS011;40046;53.254;5.900;2024-02-21T02:23:06;24.60;;;4.88;;
54139;SDS011;40046;53.254;5.900;2024-02-21T02:25:34;29.90;;;6.80;;
54139;SDS011;40046;53.254;5.900;2024-02-21T02:28:00;39.40;;;7.07;;
54139;SDS011;40046;53.254;5.900;2024-02-21T02:30:27;27.90;;;5.40;;
54139;SDS011;40046;53.254;5.900;2024-02-21T02:32:53;31.92;;;6.68;;
54139;SDS011;40046;53.254;5.900;2024-02-21T02:35:19;25.65;;;5.85;;
54139;SDS011;40046;53.254;5.900;2024-02-21T02:37:49;31.65;;;5.72;;
54139;SDS011;40046;53.254;5.900;2024-02-21T02:40:15;34.20;;;6.32;;
54139;SDS011;40046;53.254;5.900;2024-02-21T02:42:41;28.67;;;5.43;;
54139;SDS011;40046;53.254;5.900;2024-02-21T02:45:08;31.30;;;6.63;;
54139;SDS011;40046;53.254;5.900;2024-02-21T02:47:34;35.05;;;7.18;;
54139;SDS011;40046;53.254;5.900;2024-02-21T02:50:00;25.08;;;5.53;;
54139;SDS011;40046;53.254;5.900;2024-02-21T02:52:26;24.80;;;4.97;;
54139;SDS011;40046;53.254;5.900;2024-02-21T02:54:53;33.22;;;6.88;;
54139;SDS011;40046;53.254;5.900;2024-02-21T02:57:21;30.85;;;8.35;;
54139;SDS011;40046;53.254;5.900;2024-02-21T02:59:50;32.70;;;4.93;;
54139;SDS011;40046;53.254;5.900;2024-02-21T03:02:17;32.90;;;6.15;;
54139;SDS011;40046;53.254;5.900;2024-02-21T03:04:43;29.90;;;6.97;;
54139;SDS011;40046;53.254;5.900;2024-02-21T03:07:09;33.90;;;5.75;;
54139;SDS011;40046;53.254;5.900;2024-02-21T03:09:37;25.88;;;7.18;;
54139;SDS011;40046;53.254;5.900;2024-02-21T03:12:04;33.95;;;5.93;;
54139;SDS011;40046;53.254;5.900;2024-02-21T03:14:31;36.25;;;7.65;;
54139;SDS011;40046;53.254;5.900;2024-02-21T03:17:00;31.23;;;8.20;;
54139;SDS011;40046;53.254;5.900;2024-02-21T03:19:27;36.10;;;6.38;;
54139;SDS011;40046;53.254;5.900;2024-02-21T03:21:54;26.70;;;7.63;;
54139;SDS011;40046;53.254;5.900;2024-02-21T03:24:20;30.77;;;5.88;;
54139;SDS011;40046;53.254;5.900;2024-02-21T03:26:46;40.70;;;7.55;;
54139;SDS011;40046;53.254;5.900;2024-02-21T03:29:14;29.70;;;5.63;;
54139;SDS011;40046;53.254;5.900;2024-02-21T03:31:41;27.92;;;7.20;;
54139;SDS011;40046;53.254;5.900;2024-02-21T03:34:07;28.98;;;6.10;;
54139;SDS011;40046;53.254;5.900;2024-02-21T03:36:33;33.30;;;6.40;;
54139;SDS011;40046;53.254;5.900;2024-02-21T03:39:01;35.55;;;7.07;;
54139;SDS011;40046;53.254;5.900;2024-02-21T03:41:27;33.28;;;6.20;;
54139;SDS011;40046;53.254;5.900;2024-02-21T03:43:53;32.22;;;6.45;;
54139;SDS011;40046;53.254;5.900;2024-02-21T03:46:20;28.58;;;5.38;;
54139;SDS011;40046;53.254;5.900;2024-02-21T03:48:48;34.00;;;7.20;;
54139;SDS011;40046;53.254;5.900;2024-02-21T03:51:14;31.70;;;7.15;;
54139;SDS011;40046;53.254;5.900;2024-02-21T03:53:42;28.85;;;6.35;;
54139;SDS011;40046;53.254;5.900;2024-02-21T03:56:08;28.67;;;6.07;;
54139;SDS011;40046;53.254;5.900;2024-02-21T03:58:34;29.58;;;6.40;;
54139;SDS011;40046;53.254;5.900;2024-02-21T04:01:00;29.55;;;6.25;;
54139;SDS011;40046;53.254;5.900;2024-02-21T04:03:27;28.65;;;5.40;;
54139;SDS011;40046;53.254;5.900;2024-02-21T04:05:53;31.15;;;5.78;;
54139;SDS011;40046;53.254;5.900;2024-02-21T04:08:19;30.30;;;6.30;;
54139;SDS011;40046;53.254;5.900;2024-02-21T04:10:46;27.10;;;5.78;;
54139;SDS011;40046;53.254;5.900;2024-02-21T04:13:12;32.33;;;6.53;;
54139;SDS011;40046;53.254;5.900;2024-02-21T04:15:39;30.85;;;5.13;;
54139;SDS011;40046;53.254;5.900;2024-02-21T04:18:05;28.27;;;5.68;;
54139;SDS011;40046;53.254;5.900;2024-02-21T04:20:31;30.95;;;5.68;;
54139;SDS011;40046;53.254;5.900;2024-02-21T04:22:57;24.45;;;5.55;;
54139;SDS011;40046;53.254;5.900;2024-02-21T04:25:24;28.85;;;5.93;;
54139;SDS011;40046;53.254;5.900;2024-02-21T04:27:50;24.63;;;6.07;;
54139;SDS011;40046;53.254;5.900;2024-02-21T04:30:16;24.35;;;5.80;;
54139;SDS011;40046;53.254;5.900;2024-02-21T04:32:44;32.10;;;6.18;;
54139;SDS011;40046;53.254;5.900;2024-02-21T04:35:10;33.08;;;5.25;;
54139;SDS011;40046;53.254;5.900;2024-02-21T04:37:36;29.00;;;5.97;;
54139;SDS011;40046;53.254;5.900;2024-02-21T04:40:02;31.80;;;5.65;;
54139;SDS011;40046;53.254;5.900;2024-02-21T04:42:29;24.38;;;5.38;;
54139;SDS011;40046;53.254;5.900;2024-02-21T04:44:55;20.83;;;5.10;;
54139;SDS011;40046;53.254;5.900;2024-02-21T04:47:21;19.48;;;5.53;;
54139;SDS011;40046;53.254;5.900;2024-02-21T04:49:50;21.30;;;4.93;;
54139;SDS011;40046;53.254;5.900;2024-02-21T04:52:16;19.95;;;4.30;;
54139;SDS011;40046;53.254;5.900;2024-02-21T04:54:42;24.33;;;5.40;;
54139;SDS011;40046;53.254;5.900;2024-02-21T04:57:08;25.88;;;5.13;;
54139;SDS011;40046;53.254;5.900;2024-02-21T04:59:35;35.70;;;5.63;;
54139;SDS011;40046;53.254;5.900;2024-02-21T05:02:02;29.90;;;5.57;;
54139;SDS011;40046;53.254;5.900;2024-02-21T05:04:28;26.42;;;5.60;;
54139;SDS011;40046;53.254;5.900;2024-02-21T05:06:54;32.17;;;7.20;;
54139;SDS011;40046;53.254;5.900;2024-02-21T05:09:21;37.22;;;6.53;;
54139;SDS011;40046;53.254;5.900;2024-02-21T05:11:47;23.77;;;5.30;;
54139;SDS011;40046;53.254;5.900;2024-02-21T05:14:13;37.10;;;5.90;;
54139;SDS011;40046;53.254;5.900;2024-02-21T05:16:39;21.70;;;4.45;;
54139;SDS011;40046;53.254;5.900;2024-02-21T05:19:05;24.83;;;6.53;;
54139;SDS011;40046;53.254;5.900;2024-02-21T05:21:32;30.25;;;6.38;;
54139;SDS011;40046;53.254;5.900;2024-02-21T05:23:58;26.70;;;6.75;;
54139;SDS011;40046;53.254;5.900;2024-02-21T05:26:25;31.40;;;6.15;;
54139;SDS011;40046;53.254;5.900;2024-02-21T05:28:51;32.55;;;5.80;;
54139;SDS011;40046;53.254;5.900;2024-02-21T05:31:18;25.33;;;5.30;;
54139;SDS011;40046;53.254;5.900;2024-02-21T05:33:45;22.05;;;5.75;;
54139;SDS011;40046;53.254;5.900;2024-02-21T05:36:12;26.40;;;5.53;;
54139;SDS011;40046;53.254;5.900;2024-02-21T05:38:38;34.05;;;7.97;;
54139;SDS011;40046;53.254;5.900;2024-02-21T05:41:07;35.00;;;6.40;;
54139;SDS011;40046;53.254;5.900;2024-02-21T05:43:33;39.92;;;6.65;;
54139;SDS011;40046;53.254;5.900;2024-02-21T05:45:59;28.15;;;8.23;;
54139;SDS011;40046;53.254;5.900;2024-02-21T05:48:26;30.65;;;6.35;;
54139;SDS011;40046;53.254;5.900;2024-02-21T05:50:52;28.15;;;6.88;;
54139;SDS011;40046;53.254;5.900;2024-02-21T05:53:18;31.55;;;6.45;;
54139;SDS011;40046;53.254;5.900;2024-02-21T05:55:44;31.17;;;6.38;;
54139;SDS011;40046;53.254;5.900;2024-02-21T05:58:11;25.55;;;7.07;;
54139;SDS011;40046;53.254;5.900;2024-02-21T06:00:39;34.38;;;8.35;;
54139;SDS011;40046;53.254;5.900;2024-02-21T06:03:05;32.42;;;7.45;;
54139;SDS011;40046;53.254;5.900;2024-02-21T06:05:36;38.63;;;7.85;;
54139;SDS011;40046;53.254;5.900;2024-02-21T06:08:02;22.65;;;6.90;;
54139;SDS011;40046;53.254;5.900;2024-02-21T06:10:29;31.38;;;7.85;;
54139;SDS011;40046;53.254;5.900;2024-02-21T06:12:55;29.23;;;8.38;;
54139;SDS011;40046;53.254;5.900;2024-02-21T06:15:21;21.35;;;6.47;;
54139;SDS011;40046;53.254;5.900;2024-02-21T06:17:48;28.85;;;6.25;;
54139;SDS011;40046;53.254;5.900;2024-02-21T06:20:16;35.47;;;7.63;;
54139;SDS011;40046;53.254;5.900;2024-02-21T06:22:42;38.63;;;9.32;;
54139;SDS011;40046;53.254;5.900;2024-02-21T06:25:08;32.00;;;7.70;;
54139;SDS011;40046;53.254;5.900;2024-02-21T06:27:34;36.42;;;6.80;;
54139;SDS011;40046;53.254;5.900;2024-02-21T06:30:01;24.35;;;6.82;;
54139;SDS011;40046;53.254;5.900;2024-02-21T06:32:28;28.85;;;6.60;;
54139;SDS011;40046;53.254;5.900;2024-02-21T06:34:54;32.30;;;8.25;;
54139;SDS011;40046;53.254;5.900;2024-02-21T06:37:20;27.80;;;7.85;;
54139;SDS011;40046;53.254;5.900;2024-02-21T06:39:46;34.03;;;7.85;;
54139;SDS011;40046;53.254;5.900;2024-02-21T06:42:14;33.95;;;8.82;;
54139;SDS011;40046;53.254;5.900;2024-02-21T06:44:40;32.05;;;6.78;;
54139;SDS011;40046;53.254;5.900;2024-02-21T06:47:08;39.58;;;7.05;;
54139;SDS011;40046;53.254;5.900;2024-02-21T06:49:34;37.75;;;8.05;;
54139;SDS011;40046;53.254;5.900;2024-02-21T06:52:02;32.10;;;8.30;;
54139;SDS011;40046;53.254;5.900;2024-02-21T06:54:28;33.67;;;7.47;;
54139;SDS011;40046;53.254;5.900;2024-02-21T06:56:54;35.08;;;8.68;;
54139;SDS011;40046;53.254;5.900;2024-02-21T06:59:21;37.45;;;9.65;;
54139;SDS011;40046;53.254;5.900;2024-02-21T07:01:48;34.08;;;9.38;;
54139;SDS011;40046;53.254;5.900;2024-02-21T07:04:14;35.65;;;10.27;;
54139;SDS011;40046;53.254;5.900;2024-02-21T07:06:40;37.40;;;9.70;;
54139;SDS011;40046;53.254;5.900;2024-02-21T07:09:07;37.38;;;7.97;;
54139;SDS011;40046;53.254;5.900;2024-02-21T07:11:33;38.13;;;9.68;;
54139;SDS011;40046;53.254;5.900;2024-02-21T07:13:59;33.03;;;9.20;;
54139;SDS011;40046;53.254;5.900;2024-02-21T07:16:25;32.38;;;8.73;;
54139;SDS011;40046;53.254;5.900;2024-02-21T07:18:55;35.13;;;9.35;;
54139;SDS011;40046;53.254;5.900;2024-02-21T07:21:21;34.88;;;10.07;;
54139;SDS011;40046;53.254;5.900;2024-02-21T07:23:47;44.78;;;12.50;;
54139;SDS011;40046;53.254;5.900;2024-02-21T07:26:13;35.85;;;11.27;;
54139;SDS011;40046;53.254;5.900;2024-02-21T07:28:40;50.80;;;12.98;;
54139;SDS011;40046;53.254;5.900;2024-02-21T07:31:06;41.38;;;11.63;;
54139;SDS011;40046;53.254;5.900;2024-02-21T07:33:32;57.78;;;13.88;;
54139;SDS011;40046;53.254;5.900;2024-02-21T07:36:00;44.00;;;13.85;;
54139;SDS011;40046;53.254;5.900;2024-02-21T07:38:27;41.05;;;13.02;;
54139;SDS011;40046;53.254;5.900;2024-02-21T07:40:53;42.75;;;15.23;;
54139;SDS011;40046;53.254;5.900;2024-02-21T07:43:19;54.35;;;13.85;;
54139;SDS011;40046;53.254;5.900;2024-02-21T07:45:47;50.70;;;15.55;;
54139;SDS011;40046;53.254;5.900;2024-02-21T07:48:13;45.00;;;14.20;;
54139;SDS011;40046;53.254;5.900;2024-02-21T07:50:39;53.90;;;16.67;;
54139;SDS011;40046;53.254;5.900;2024-02-21T07:53:06;49.63;;;16.10;;
54139;SDS011;40046;53.254;5.900;2024-02-21T07:55:32;55.97;;;17.73;;
54139;SDS011;40046;53.254;5.900;2024-02-21T07:57:58;58.42;;;18.02;;
54139;SDS011;40046;53.254;5.900;2024-02-21T08:00:24;56.90;;;17.10;;
54139;SDS011;40046;53.254;5.900;2024-02-21T08:02:50;46.35;;;17.50;;
54139;SDS011;40046;53.254;5.900;2024-02-21T08:05:17;59.67;;;18.80;;
54139;SDS011;40046;53.254;5.900;2024-02-21T08:07:43;48.22;;;16.67;;
54139;SDS011;40046;53.254;5.900;2024-02-21T08:10:09;47.78;;;18.27;;
54139;SDS011;40046;53.254;5.900;2024-02-21T08:12:39;49.92;;;19.52;;
54139;SDS011;40046;53.254;5.900;2024-02-21T08:15:05;52.63;;;19.83;;
54139;SDS011;40046;53.254;5.900;2024-02-21T08:17:38;44.25;;;18.98;;
54139;SDS011;40046;53.254;5.900;2024-02-21T08:20:05;50.80;;;18.23;;
54139;SDS011;40046;53.254;5.900;2024-02-21T08:22:31;41.47;;;17.25;;
54139;SDS011;40046;53.254;5.900;2024-02-21T08:24:57;43.80;;;16.33;;
54139;SDS011;40046;53.254;5.900;2024-02-21T08:27:24;48.95;;;16.20;;
54139;SDS011;40046;53.254;5.900;2024-02-21T08:29:50;37.92;;;14.05;;
54139;SDS011;40046;53.254;5.900;2024-02-21T08:32:17;30.80;;;13.20;;
54139;SDS011;40046;53.254;5.900;2024-02-21T08:34:43;33.30;;;13.48;;
54139;SDS011;40046;53.254;5.900;2024-02-21T08:37:09;36.75;;;13.45;;
54139;SDS011;40046;53.254;5.900;2024-02-21T08:39:36;31.95;;;11.70;;
54139;SDS011;40046;53.254;5.900;2024-02-21T08:42:02;35.67;;;12.25;;
54139;SDS011;40046;53.254;5.900;2024-02-21T08:44:28;31.40;;;11.60;;
54139;SDS011;40046;53.254;5.900;2024-02-21T08:46:54;27.52;;;11.05;;
54139;SDS011;40046;53.254;5.900;2024-02-21T08:49:21;39.03;;;12.10;;
54139;SDS011;40046;53.254;5.900;2024-02-21T08:51:47;26.02;;;10.00;;
54139;SDS011;40046;53.254;5.900;2024-02-21T08:54:13;30.40;;;9.77;;
54139;SDS011;40046;53.254;5.900;2024-02-21T08:56:39;32.83;;;12.50;;
54139;SDS011;40046;53.254;5.900;2024-02-21T08:59:05;29.48;;;11.65;;
54139;SDS011;40046;53.254;5.900;2024-02-21T09:01:32;31.15;;;11.93;;
54139;SDS011;40046;53.254;5.900;2024-02-21T09:03:59;30.40;;;14.93;;
54139;SDS011;40046;53.254;5.900;2024-02-21T09:06:26;31.98;;;15.93;;
54139;SDS011;40046;53.254;5.900;2024-02-21T09:08:53;33.33;;;17.95;;
54139;SDS011;40046;53.254;5.900;2024-02-21T09:11:21;35.13;;;19.33;;
54139;SDS011;40046;53.254;5.900;2024-02-21T09:13:48;37.00;;;20.48;;
54139;SDS011;40046;53.254;5.900;2024-02-21T09:16:14;35.33;;;20.25;;
54139;SDS011;40046;53.254;5.900;2024-02-21T09:18:40;31.25;;;20.73;;
54139;SDS011;40046;53.254;5.900;2024-02-21T09:21:06;32.70;;;22.17;;
54139;SDS011;40046;53.254;5.900;2024-02-21T09:23:32;27.00;;;20.00;;
54139;SDS011;40046;53.254;5.900;2024-02-21T09:25:58;24.88;;;19.73;;
54139;SDS011;40046;53.254;5.900;2024-02-21T09:28:28;34.88;;;21.65;;
54139;SDS011;40046;53.254;5.900;2024-02-21T09:30:54;28.92;;;20.48;;
54139;SDS011;40046;53.254;5.900;2024-02-21T09:33:21;36.30;;;21.98;;
54139;SDS011;40046;53.254;5.900;2024-02-21T09:35:47;34.30;;;20.27;;
54139;SDS011;40046;53.254;5.900;2024-02-21T09:38:13;30.77;;;18.88;;
54139;SDS011;40046;53.254;5.900;2024-02-21T09:40:40;32.50;;;21.23;;
54139;SDS011;40046;53.254;5.900;2024-02-21T09:43:07;33.58;;;20.08;;
54139;SDS011;40046;53.254;5.900;2024-02-21T09:45:34;31.80;;;21.08;;
54139;SDS011;40046;53.254;5.900;2024-02-21T09:48:05;27.52;;;20.73;;
54139;SDS011;40046;53.254;5.900;2024-02-21T09:50:34;26.48;;;19.80;;
54139;SDS011;40046;53.254;5.900;2024-02-21T09:53:02;25.83;;;19.38;;
54139;SDS011;40046;53.254;5.900;2024-02-21T09:55:29;27.52;;;20.27;;
54139;SDS011;40046;53.254;5.900;2024-02-21T09:57:57;28.40;;;20.58;;
54139;SDS011;40046;53.254;5.900;2024-02-21T10:00:24;30.40;;;20.63;;
54139;SDS011;40046;53.254;5.900;2024-02-21T10:02:50;24.52;;;20.05;;
54139;SDS011;40046;53.254;5.900;2024-02-21T10:05:16;27.65;;;21.85;;
54139;SDS011;40046;53.254;5.900;2024-02-21T10:07:43;27.80;;;20.98;;
54139;SDS011;40046;53.254;5.900;2024-02-21T10:10:09;29.25;;;19.65;;
54139;SDS011;40046;53.254;5.900;2024-02-21T10:12:36;33.00;;;20.27;;
54139;SDS011;40046;53.254;5.900;2024-02-21T10:15:03;30.75;;;18.90;;
54139;SDS011;40046;53.254;5.900;2024-02-21T10:17:29;26.80;;;19.02;;
54139;SDS011;40046;53.254;5.900;2024-02-21T10:20:06;24.85;;;17.67;;
54139;SDS011;40046;53.254;5.900;2024-02-21T10:22:32;24.42;;;18.13;;
54139;SDS011;40046;53.254;5.900;2024-02-21T10:25:12;28.33;;;18.55;;
54139;SDS011;40046;53.254;5.900;2024-02-21T10:27:38;27.73;;;20.95;;
54139;SDS011;40046;53.254;5.900;2024-02-21T10:30:06;24.77;;;19.15;;
54139;SDS011;40046;53.254;5.900;2024-02-21T10:32:32;24.83;;;19.73;;
54139;SDS011;40046;53.254;5.900;2024-02-21T10:35:02;31.00;;;18.80;;
54139;SDS011;40046;53.254;5.900;2024-02-21T10:37:30;27.25;;;17.13;;
54139;SDS011;40046;53.254;5.900;2024-02-21T10:39:57;26.30;;;18.90;;
54139;SDS011;40046;53.254;5.900;2024-02-21T10:42:23;29.70;;;20.05;;
54139;SDS011;40046;53.254;5.900;2024-02-21T10:44:52;26.75;;;19.23;;
54139;SDS011;40046;53.254;5.900;2024-02-21T10:47:19;30.92;;;19.27;;
54139;SDS011;40046;53.254;5.900;2024-02-21T10:49:49;27.98;;;19.55;;
54139;SDS011;40046;53.254;5.900;2024-02-21T10:55:06;29.75;;;19.85;;
54139;SDS011;40046;53.254;5.900;2024-02-21T10:57:37;28.83;;;19.25;;
54139;SDS011;40046;53.254;5.900;2024-02-21T11:00:03;24.83;;;18.67;;
54139;SDS011;40046;53.254;5.900;2024-02-21T11:02:33;24.70;;;18.13;;
54139;SDS011;40046;53.254;5.900;2024-02-21T11:04:59;27.27;;;17.65;;
54139;SDS011;40046;53.254;5.900;2024-02-21T11:07:29;32.10;;;19.23;;
54139;SDS011;40046;53.254;5.900;2024-02-21T11:09:57;25.13;;;17.80;;
54139;SDS011;40046;53.254;5.900;2024-02-21T11:12:25;26.55;;;18.58;;
54139;SDS011;40046;53.254;5.900;2024-02-21T11:14:52;26.50;;;20.98;;
54139;SDS011;40046;53.254;5.900;2024-02-21T11:17:30;22.58;;;18.35;;
54139;SDS011;40046;53.254;5.900;2024-02-21T11:19:56;25.80;;;18.52;;
54139;SDS011;40046;53.254;5.900;2024-02-21T11:22:24;27.75;;;20.48;;
54139;SDS011;40046;53.254;5.900;2024-02-21T11:24:54;23.25;;;18.02;;
54139;SDS011;40046;53.254;5.900;2024-02-21T11:27:21;19.98;;;17.83;;
54139;SDS011;40046;53.254;5.900;2024-02-21T11:29:57;20.55;;;17.30;;
54139;SDS011;40046;53.254;5.900;2024-02-21T11:34:57;20.65;;;16.33;;
54139;SDS011;40046;53.254;5.900;2024-02-21T11:37:33;27.35;;;18.58;;
54139;SDS011;40046;53.254;5.900;2024-02-21T11:40:02;19.48;;;17.38;;
54139;SDS011;40046;53.254;5.900;2024-02-21T11:42:29;19.45;;;17.13;;
54139;SDS011;40046;53.254;5.900;2024-02-21T11:44:59;22.02;;;16.05;;
54139;SDS011;40046;53.254;5.900;2024-02-21T11:47:27;19.98;;;16.10;;
54139;SDS011;40046;53.254;5.900;2024-02-21T11:49:54;21.83;;;18.65;;
54139;SDS011;40046;53.254;5.900;2024-02-21T11:52:24;17.40;;;15.02;;
54139;SDS011;40046;53.254;5.900;2024-02-21T11:54:51;19.35;;;16.27;;
54139;SDS011;40046;53.254;5.900;2024-02-21T11:57:22;22.77;;;16.58;;
54139;SDS011;40046;53.254;5.900;2024-02-21T11:59:48;28.70;;;17.92;;
54139;SDS011;40046;53.254;5.900;2024-02-21T12:02:16;20.88;;;17.23;;
54139;SDS011;40046;53.254;5.900;2024-02-21T12:04:43;20.27;;;16.98;;
54139;SDS011;40046;53.254;5.900;2024-02-21T12:07:10;20.38;;;17.10;;
54139;SDS011;40046;53.254;5.900;2024-02-21T12:09:36;28.75;;;18.23;;
54139;SDS011;40046;53.254;5.900;2024-02-21T12:12:03;22.77;;;18.63;;
54139;SDS011;40046;53.254;5.900;2024-02-21T12:14:31;24.50;;;17.95;;
54139;SDS011;40046;53.254;5.900;2024-02-21T12:16:58;27.40;;;18.65;;
54139;SDS011;40046;53.254;5.900;2024-02-21T12:19:25;21.73;;;17.70;;
54139;SDS011;40046;53.254;5.900;2024-02-21T12:21:51;22.13;;;18.35;;
54139;SDS011;40046;53.254;5.900;2024-02-21T12:24:26;26.15;;;17.98;;
54139;SDS011;40046;53.254;5.900;2024-02-21T12:26:53;25.60;;;18.67;;
54139;SDS011;40046;53.254;5.900;2024-02-21T12:29:19;27.42;;;17.55;;
54139;SDS011;40046;53.254;5.900;2024-02-21T12:31:46;20.83;;;15.82;;
54139;SDS011;40046;53.254;5.900;2024-02-21T12:34:12;18.60;;;15.88;;
54139;SDS011;40046;53.254;5.900;2024-02-21T12:36:42;18.42;;;14.52;;
54139;SDS011;40046;53.254;5.900;2024-02-21T12:39:09;19.23;;;14.82;;
54139;SDS011;40046;53.254;5.900;2024-02-21T12:41:36;21.35;;;14.55;;
54139;SDS011;40046;53.254;5.900;2024-02-21T12:44:07;20.70;;;13.63;;
54139;SDS011;40046;53.254;5.900;2024-02-21T12:46:33;19.38;;;13.35;;
54139;SDS011;40046;53.254;5.900;2024-02-21T12:49:00;15.13;;;11.75;;
54139;SDS011;40046;53.254;5.900;2024-02-21T12:51:27;16.00;;;11.40;;
54139;SDS011;40046;53.254;5.900;2024-02-21T12:53:53;21.92;;;12.27;;
54139;SDS011;40046;53.254;5.900;2024-02-21T12:56:19;16.27;;;10.60;;
54139;SDS011;40046;53.254;5.900;2024-02-21T12:58:46;17.08;;;10.70;;
54139;SDS011;40046;53.254;5.900;2024-02-21T13:01:12;14.80;;;10.90;;
54139;SDS011;40046;53.254;5.900;2024-02-21T13:03:38;14.10;;;10.10;;
54139;SDS011;40046;53.254;5.900;2024-02-21T13:06:05;15.15;;;10.35;;
54139;SDS011;40046;53.254;5.900;2024-02-21T13:08:37;14.95;;;9.65;;
54139;SDS011;40046;53.254;5.900;2024-02-21T13:11:04;13.35;;;9.68;;
54139;SDS011;40046;53.254;5.900;2024-02-21T13:13:30;15.65;;;9.70;;
54139;SDS011;40046;53.254;5.900;2024-02-21T13:15:57;12.40;;;10.23;;
54139;SDS011;40046;53.254;5.900;2024-02-21T13:18:23;14.13;;;9.40;;
54139;SDS011;40046;53.254;5.900;2024-02-21T13:20:49;15.70;;;8.77;;
54139;SDS011;40046;53.254;5.900;2024-02-21T13:23:16;13.43;;;9.32;;
54139;SDS011;40046;53.254;5.900;2024-02-21T13:25:42;13.15;;;8.90;;
54139;SDS011;40046;53.254;5.900;2024-02-21T13:28:10;12.73;;;8.65;;
54139;SDS011;40046;53.254;5.900;2024-02-21T13:30:37;11.23;;;7.95;;
54139;SDS011;40046;53.254;5.900;2024-02-21T13:33:03;11.77;;;8.18;;
54139;SDS011;40046;53.254;5.900;2024-02-21T13:35:29;10.77;;;7.55;;
54139;SDS011;40046;53.254;5.900;2024-02-21T13:37:56;11.75;;;8.05;;
54139;SDS011;40046;53.254;5.900;2024-02-21T13:40:25;9.52;;;7.50;;
54139;SDS011;40046;53.254;5.900;2024-02-21T13:42:51;12.30;;;8.35;;
54139;SDS011;40046;53.254;5.900;2024-02-21T13:45:19;15.30;;;7.75;;
54139;SDS011;40046;53.254;5.900;2024-02-21T13:47:45;9.27;;;6.90;;
54139;SDS011;40046;53.254;5.900;2024-02-21T13:50:13;10.23;;;7.75;;
54139;SDS011;40046;53.254;5.900;2024-02-21T13:52:40;9.52;;;7.50;;
54139;SDS011;40046;53.254;5.900;2024-02-21T13:55:06;10.80;;;7.65;;
54139;SDS011;40046;53.254;5.900;2024-02-21T13:57:36;11.75;;;7.63;;
54139;SDS011;40046;53.254;5.900;2024-02-21T14:00:05;9.27;;;7.07;;
54139;SDS011;40046;53.254;5.900;2024-02-21T14:02:38;8.98;;;7.18;;
54139;SDS011;40046;53.254;5.900;2024-02-21T14:05:05;9.68;;;7.22;;
54139;SDS011;40046;53.254;5.900;2024-02-21T14:07:32;10.23;;;7.30;;
54139;SDS011;40046;53.254;5.900;2024-02-21T14:10:01;10.57;;;7.25;;
54139;SDS011;40046;53.254;5.900;2024-02-21T14:12:29;11.13;;;7.95;;
54139;SDS011;40046;53.254;5.900;2024-02-21T14:14:55;10.60;;;7.07;;
54139;SDS011;40046;53.254;5.900;2024-02-21T14:17:23;9.68;;;7.28;;
54139;SDS011;40046;53.254;5.900;2024-02-21T14:19:50;11.52;;;7.88;;
54139;SDS011;40046;53.254;5.900;2024-02-21T14:22:17;9.93;;;7.68;;
54139;SDS011;40046;53.254;5.900;2024-02-21T14:24:43;10.55;;;7.90;;
54139;SDS011;40046;53.254;5.900;2024-02-21T14:27:09;10.45;;;8.50;;
54139;SDS011;40046;53.254;5.900;2024-02-21T14:29:37;11.32;;;8.43;;
54139;SDS011;40046;53.254;5.900;2024-02-21T14:32:04;10.45;;;8.80;;
54139;SDS011;40046;53.254;5.900;2024-02-21T14:34:34;12.43;;;9.90;;